Aviation Digital Data Service (ADDS)

Output produced by METARs form (0423 UTC 19 August 2019)
found at http://www.aviationweather.gov/metar/data/
 
METAR text: UGSB 190400Z 20006KT 160V220 9999 FEW016 BKN025 23/21 Q1014 R13/29//55 NOSIG
Conditions at: UGSB (BATUMI , GE) observed 0400 UTC 19 August 2019
Temperature: 23.0°C (73°F)
Dewpoint: 21.0°C (70°F) [RH = 89%]
Pressure (altimeter): 29.94 inches Hg (1014.0 mb)
Winds: from the SSW (200 degrees) at 7 MPH (6 knots; 3.1 m/s)
Visibility: 6 or more miles (10+ km)
Ceiling: 2500 feet AGL
Clouds: few clouds at 1600 feet AGL
broken clouds at 2500 feet AGL
Weather: no significant weather observed at this time

METAR text: UGSB 190330Z 21008KT 170V230 9999 FEW013 BKN025 23/21 Q1014 R13/29//55 NOSIG
Conditions at: UGSB (BATUMI , GE) observed 0330 UTC 19 August 2019
Temperature: 23.0°C (73°F)
Dewpoint: 21.0°C (70°F) [RH = 89%]
Pressure (altimeter): 29.94 inches Hg (1014.0 mb)
Winds: from the SSW (210 degrees) at 9 MPH (8 knots; 4.1 m/s)
Visibility: 6 or more miles (10+ km)
Ceiling: 2500 feet AGL
Clouds: few clouds at 1300 feet AGL
broken clouds at 2500 feet AGL
Weather: no significant weather observed at this time

METAR text: UGSB 190300Z 20007KT 160V220 9999 FEW011 BKN023 22/21 Q1014 R13/29//55 NOSIG
Conditions at: UGSB (BATUMI , GE) observed 0300 UTC 19 August 2019
Temperature: 22.0°C (72°F)
Dewpoint: 21.0°C (70°F) [RH = 94%]
Pressure (altimeter): 29.94 inches Hg (1014.0 mb)
Winds: from the SSW (200 degrees) at 8 MPH (7 knots; 3.6 m/s)
Visibility: 6 or more miles (10+ km)
Ceiling: 2300 feet AGL
Clouds: few clouds at 1100 feet AGL
broken clouds at 2300 feet AGL
Weather: no significant weather observed at this time

METAR text: UGSB 190200Z 21010KT 170V230 7000 -DZ FEW008 BKN017 22/21 Q1014 R13/29//55 NOSIG
Conditions at: UGSB (BATUMI , GE) observed 0200 UTC 19 August 2019
Temperature: 22.0°C (72°F)
Dewpoint: 21.0°C (70°F) [RH = 94%]
Pressure (altimeter): 29.94 inches Hg (1014.0 mb)
Winds: from the SSW (210 degrees) at 12 MPH (10 knots; 5.1 m/s)
Visibility: 4 miles ( 7 km)
Ceiling: 1700 feet AGL
Clouds: few clouds at 800 feet AGL
broken clouds at 1700 feet AGL
Weather: -DZ  (light drizzle)

METAR text: UGSB 190130Z 21009KT 6000 -DZ FEW008 OVC016 22/21 Q1013 R13/29//55 NOSIG
Conditions at: UGSB (BATUMI , GE) observed 0130 UTC 19 August 2019
Temperature: 22.0°C (72°F)
Dewpoint: 21.0°C (70°F) [RH = 94%]
Pressure (altimeter): 29.91 inches Hg (1013.0 mb)
Winds: from the SSW (210 degrees) at 10 MPH (9 knots; 4.6 m/s)
Visibility: 4 miles ( 6 km)
Ceiling: 1600 feet AGL
Clouds: few clouds at 800 feet AGL
overcast cloud deck at 1600 feet AGL
Weather: -DZ  (light drizzle)

METAR text: UGSB 190100Z 20006KT 140V240 9999 BKN022 22/21 Q1013 R13/29//55 NOSIG
Conditions at: UGSB (BATUMI , GE) observed 0100 UTC 19 August 2019
Temperature: 22.0°C (72°F)
Dewpoint: 21.0°C (70°F) [RH = 94%]
Pressure (altimeter): 29.91 inches Hg (1013.0 mb)
Winds: from the SSW (200 degrees) at 7 MPH (6 knots; 3.1 m/s)
Visibility: 6 or more miles (10+ km)
Ceiling: 2200 feet AGL
Clouds: broken clouds at 2200 feet AGL
Weather: no significant weather observed at this time

METAR text: UGSB 190030Z 17004KT 140V220 9999 -DZ SCT013 BKN024 22/21 Q1013 R13/29//55 NOSIG
Conditions at: UGSB (BATUMI , GE) observed 0030 UTC 19 August 2019
Temperature: 22.0°C (72°F)
Dewpoint: 21.0°C (70°F) [RH = 94%]
Pressure (altimeter): 29.91 inches Hg (1013.0 mb)
Winds: from the S (170 degrees) at 5 MPH (4 knots; 2.1 m/s)
Visibility: 6 or more miles (10+ km)
Ceiling: 2400 feet AGL
Clouds: scattered clouds at 1300 feet AGL
broken clouds at 2400 feet AGL
Weather: -DZ  (light drizzle)

METAR text: UGSB 190000Z 20006KT 150V230 7000 -DZ SCT007 BKN019 22/21 Q1013 R13/29//55 NOSIG
Conditions at: UGSB (BATUMI , GE) observed 0000 UTC 19 August 2019
Temperature: 22.0°C (72°F)
Dewpoint: 21.0°C (70°F) [RH = 94%]
Pressure (altimeter): 29.91 inches Hg (1013.0 mb)
Winds: from the SSW (200 degrees) at 7 MPH (6 knots; 3.1 m/s)
Visibility: 4 miles ( 7 km)
Ceiling: 1900 feet AGL
Clouds: scattered clouds at 700 feet AGL
broken clouds at 1900 feet AGL
Weather: -DZ  (light drizzle)

METAR text: UGSB 182330Z 19006KT 150V240 5000 -DZ BR SCT007 BKN019 22/21 Q1013 R13/29//55 NOSIG
Conditions at: UGSB (BATUMI , GE) observed 2330 UTC 18 August 2019
Temperature: 22.0°C (72°F)
Dewpoint: 21.0°C (70°F) [RH = 94%]
Pressure (altimeter): 29.91 inches Hg (1013.0 mb)
Winds: from the S (190 degrees) at 7 MPH (6 knots; 3.1 m/s)
Visibility: 3 miles ( 5 km)
Ceiling: 1900 feet AGL
Clouds: scattered clouds at 700 feet AGL
broken clouds at 1900 feet AGL
Weather: -DZ BR  (light drizzle, mist)

METAR text: UGSB 182300Z 21009KT 170V230 5000 -DZ BR SCT007 BKN018 22/21 Q1013 R13/////// NOSIG
Conditions at: UGSB (BATUMI , GE) observed 2300 UTC 18 August 2019
Temperature: 22.0°C (72°F)
Dewpoint: 21.0°C (70°F) [RH = 94%]
Pressure (altimeter): 29.91 inches Hg (1013.0 mb)
Winds: from the SSW (210 degrees) at 10 MPH (9 knots; 4.6 m/s)
Visibility: 3 miles ( 5 km)
Ceiling: 1800 feet AGL
Clouds: scattered clouds at 700 feet AGL
broken clouds at 1800 feet AGL
Weather: -DZ BR  (light drizzle, mist)

METAR text: UGSB 182230Z 22011KT 5000 -DZ BR SCT008 BKN020 22/21 Q1013 R13/////// NOSIG
Conditions at: UGSB (BATUMI , GE) observed 2230 UTC 18 August 2019
Temperature: 22.0°C (72°F)
Dewpoint: 21.0°C (70°F) [RH = 94%]
Pressure (altimeter): 29.91 inches Hg (1013.0 mb)
Winds: from the SW (220 degrees) at 13 MPH (11 knots; 5.7 m/s)
Visibility: 3 miles ( 5 km)
Ceiling: 2000 feet AGL
Clouds: scattered clouds at 800 feet AGL
broken clouds at 2000 feet AGL
Weather: -DZ BR  (light drizzle, mist)

METAR text: UGSB 182200Z 21007KT 6000 -DZ FEW008 BKN023 22/22 Q1013 R13/////// NOSIG
Conditions at: UGSB (BATUMI , GE) observed 2200 UTC 18 August 2019
Temperature: 22.0°C (72°F)
Dewpoint: 22.0°C (72°F) [RH = 100%]
Pressure (altimeter): 29.91 inches Hg (1013.0 mb)
Winds: from the SSW (210 degrees) at 8 MPH (7 knots; 3.6 m/s)
Visibility: 4 miles ( 6 km)
Ceiling: 2300 feet AGL
Clouds: few clouds at 800 feet AGL
broken clouds at 2300 feet AGL
Weather: -DZ  (light drizzle)

METAR text: UGSB 182130Z 22011KT 7000 -DZ FEW010 BKN021 22/21 Q1013 R13/////// NOSIG
Conditions at: UGSB (BATUMI , GE) observed 2130 UTC 18 August 2019
Temperature: 22.0°C (72°F)
Dewpoint: 21.0°C (70°F) [RH = 94%]
Pressure (altimeter): 29.91 inches Hg (1013.0 mb)
Winds: from the SW (220 degrees) at 13 MPH (11 knots; 5.7 m/s)
Visibility: 4 miles ( 7 km)
Ceiling: 2100 feet AGL
Clouds: few clouds at 1000 feet AGL
broken clouds at 2100 feet AGL
Weather: -DZ  (light drizzle)

METAR text: UGSB 182100Z 21008KT 150V240 6000 -DZ FEW010 BKN020 22/22 Q1013 R13/////// NOSIG
Conditions at: UGSB (BATUMI , GE) observed 2100 UTC 18 August 2019
Temperature: 22.0°C (72°F)
Dewpoint: 22.0°C (72°F) [RH = 100%]
Pressure (altimeter): 29.91 inches Hg (1013.0 mb)
Winds: from the SSW (210 degrees) at 9 MPH (8 knots; 4.1 m/s)
Visibility: 4 miles ( 6 km)
Ceiling: 2000 feet AGL
Clouds: few clouds at 1000 feet AGL
broken clouds at 2000 feet AGL
Weather: -DZ  (light drizzle)

METAR text: UGSB 182030Z 21008KT 150V230 6000 -DZ BKN020 22/21 Q1013 R13/19//60 NOSIG
Conditions at: UGSB (BATUMI , GE) observed 2030 UTC 18 August 2019
Temperature: 22.0°C (72°F)
Dewpoint: 21.0°C (70°F) [RH = 94%]
Pressure (altimeter): 29.91 inches Hg (1013.0 mb)
Winds: from the SSW (210 degrees) at 9 MPH (8 knots; 4.1 m/s)
Visibility: 4 miles ( 6 km)
Ceiling: 2000 feet AGL
Clouds: broken clouds at 2000 feet AGL
Weather: -DZ  (light drizzle)

METAR text: UGSB 182000Z 22009KT 180V340 9999 BKN024 23/21 Q1013 R13/19//60 NOSIG
Conditions at: UGSB (BATUMI , GE) observed 2000 UTC 18 August 2019
Temperature: 23.0°C (73°F)
Dewpoint: 21.0°C (70°F) [RH = 89%]
Pressure (altimeter): 29.91 inches Hg (1013.0 mb)
Winds: from the SW (220 degrees) at 10 MPH (9 knots; 4.6 m/s)
Visibility: 6 or more miles (10+ km)
Ceiling: 2400 feet AGL
Clouds: broken clouds at 2400 feet AGL
Weather: no significant weather observed at this time

METAR text: UGSB 181930Z 22009KT 190V250 9999 FEW013 BKN021 23/22 Q1013 R13/19//60 NOSIG
Conditions at: UGSB (BATUMI , GE) observed 1930 UTC 18 August 2019
Temperature: 23.0°C (73°F)
Dewpoint: 22.0°C (72°F) [RH = 94%]
Pressure (altimeter): 29.91 inches Hg (1013.0 mb)
Winds: from the SW (220 degrees) at 10 MPH (9 knots; 4.6 m/s)
Visibility: 6 or more miles (10+ km)
Ceiling: 2100 feet AGL
Clouds: few clouds at 1300 feet AGL
broken clouds at 2100 feet AGL
Weather: no significant weather observed at this time

METAR text: UGSB 181900Z 22008KT 9999 -DZ FEW016 BKN025 23/22 Q1013 R13/19//60 NOSIG
Conditions at: UGSB (BATUMI , GE) observed 1900 UTC 18 August 2019
Temperature: 23.0°C (73°F)
Dewpoint: 22.0°C (72°F) [RH = 94%]
Pressure (altimeter): 29.91 inches Hg (1013.0 mb)
Winds: from the SW (220 degrees) at 9 MPH (8 knots; 4.1 m/s)
Visibility: 6 or more miles (10+ km)
Ceiling: 2500 feet AGL
Clouds: few clouds at 1600 feet AGL
broken clouds at 2500 feet AGL
Weather: -DZ  (light drizzle)

METAR text: UGSB 181830Z 16003KT 130V230 9000 BKN025 22/22 Q1013 NOSIG
Conditions at: UGSB (BATUMI , GE) observed 1830 UTC 18 August 2019
Temperature: 22.0°C (72°F)
Dewpoint: 22.0°C (72°F) [RH = 100%]
Pressure (altimeter): 29.91 inches Hg (1013.0 mb)
Winds: from the SSE (160 degrees) at 3 MPH (3 knots; 1.5 m/s)
Visibility: 6 miles ( 9 km)
Ceiling: 2500 feet AGL
Clouds: broken clouds at 2500 feet AGL
Weather: no significant weather observed at this time

METAR text: UGSB 181800Z 13004KT 8000 BKN030 22/22 Q1013 NOSIG
Conditions at: UGSB (BATUMI , GE) observed 1800 UTC 18 August 2019
Temperature: 22.0°C (72°F)
Dewpoint: 22.0°C (72°F) [RH = 100%]
Pressure (altimeter): 29.91 inches Hg (1013.0 mb)
Winds: from the SE (130 degrees) at 5 MPH (4 knots; 2.1 m/s)
Visibility: 5 miles ( 8 km)
Ceiling: 3000 feet AGL
Clouds: broken clouds at 3000 feet AGL
Weather: no significant weather observed at this time

METAR text: UGSB 181730Z VRB01KT 9999 BKN028 22/22 Q1013 NOSIG
Conditions at: UGSB (BATUMI , GE) observed 1730 UTC 18 August 2019
Temperature: 22.0°C (72°F)
Dewpoint: 22.0°C (72°F) [RH = 100%]
Pressure (altimeter): 29.91 inches Hg (1013.0 mb)
Winds: variable direction winds at 1 MPH (1 knots; 0.5 m/s)
Visibility: 6 or more miles (10+ km)
Ceiling: 2800 feet AGL
Clouds: broken clouds at 2800 feet AGL
Weather: no significant weather observed at this time

METAR text: UGSB 181700Z 14003KT 7000 BKN026 22/22 Q1013 R13/19//60 TEMPO 5000 RA FEW015 BKN025
Conditions at: UGSB (BATUMI , GE) observed 1700 UTC 18 August 2019
Temperature: 22.0°C (72°F)
Dewpoint: 22.0°C (72°F) [RH = 100%]
Pressure (altimeter): 29.91 inches Hg (1013.0 mb)
Winds: from the SE (140 degrees) at 3 MPH (3 knots; 1.5 m/s)
Visibility: 4 miles ( 7 km)
Ceiling: 2600 feet AGL
Clouds: broken clouds at 2600 feet AGL
Weather: no significant weather observed at this time

METAR text: UGSB 181630Z 14005KT 8000 -DZ BKN024 22/22 Q1012 R13/19//60 TEMPO 5000 RA SCT009 BKN020
Conditions at: UGSB (BATUMI , GE) observed 1630 UTC 18 August 2019
Temperature: 22.0°C (72°F)
Dewpoint: 22.0°C (72°F) [RH = 100%]
Pressure (altimeter): 29.88 inches Hg (1012.0 mb)
Winds: from the SE (140 degrees) at 6 MPH (5 knots; 2.6 m/s)
Visibility: 5 miles ( 8 km)
Ceiling: 2400 feet AGL
Clouds: broken clouds at 2400 feet AGL
Weather: -DZ  (light drizzle)

METAR text: UGSB 181600Z 15006KT 6000 -DZ FEW013 BKN020 22/21 Q1012 R13/19//60 TEMPO 4000 RA SCT009 BKN020
Conditions at: UGSB (BATUMI , GE) observed 1600 UTC 18 August 2019
Temperature: 22.0°C (72°F)
Dewpoint: 21.0°C (70°F) [RH = 94%]
Pressure (altimeter): 29.88 inches Hg (1012.0 mb)
Winds: from the SSE (150 degrees) at 7 MPH (6 knots; 3.1 m/s)
Visibility: 4 miles ( 6 km)
Ceiling: 2000 feet AGL
Clouds: few clouds at 1300 feet AGL
broken clouds at 2000 feet AGL
Weather: -DZ  (light drizzle)

METAR text: UGSB 181530Z 14005KT 9999 FEW013 BKN021 23/21 Q1012 NOSIG
Conditions at: UGSB (BATUMI , GE) observed 1530 UTC 18 August 2019
Temperature: 23.0°C (73°F)
Dewpoint: 21.0°C (70°F) [RH = 89%]
Pressure (altimeter): 29.88 inches Hg (1012.0 mb)
Winds: from the SE (140 degrees) at 6 MPH (5 knots; 2.6 m/s)
Visibility: 6 or more miles (10+ km)
Ceiling: 2100 feet AGL
Clouds: few clouds at 1300 feet AGL
broken clouds at 2100 feet AGL
Weather: no significant weather observed at this time

METAR text: UGSB 181500Z 18004KT 150V230 9999 SCT010 BKN025 23/22 Q1012 NOSIG
Conditions at: UGSB (BATUMI , GE) observed 1500 UTC 18 August 2019
Temperature: 23.0°C (73°F)
Dewpoint: 22.0°C (72°F) [RH = 94%]
Pressure (altimeter): 29.88 inches Hg (1012.0 mb)
Winds: from the S (180 degrees) at 5 MPH (4 knots; 2.1 m/s)
Visibility: 6 or more miles (10+ km)
Ceiling: 2500 feet AGL
Clouds: scattered clouds at 1000 feet AGL
broken clouds at 2500 feet AGL
Weather: no significant weather observed at this time

METAR text: UGSB 181430Z 23007KT 200V270 9999 SCT013 BKN039 24/22 Q1011 NOSIG
Conditions at: UGSB (BATUMI , GE) observed 1430 UTC 18 August 2019
Temperature: 24.0°C (75°F)
Dewpoint: 22.0°C (72°F) [RH = 89%]
Pressure (altimeter): 29.85 inches Hg (1011.0 mb)
Winds: from the SW (230 degrees) at 8 MPH (7 knots; 3.6 m/s)
Visibility: 6 or more miles (10+ km)
Ceiling: 3900 feet AGL
Clouds: scattered clouds at 1300 feet AGL
broken clouds at 3900 feet AGL
Weather: no significant weather observed at this time

METAR text: UGSB 181400Z 20006KT 170V230 9999 FEW016 BKN039 24/21 Q1011 NOSIG
Conditions at: UGSB (BATUMI , GE) observed 1400 UTC 18 August 2019
Temperature: 24.0°C (75°F)
Dewpoint: 21.0°C (70°F) [RH = 83%]
Pressure (altimeter): 29.85 inches Hg (1011.0 mb)
Winds: from the SSW (200 degrees) at 7 MPH (6 knots; 3.1 m/s)
Visibility: 6 or more miles (10+ km)
Ceiling: 3900 feet AGL
Clouds: few clouds at 1600 feet AGL
broken clouds at 3900 feet AGL
Weather: no significant weather observed at this time

METAR text: UGSB 181330Z 22008KT 9999 FEW020 BKN040 23/21 Q1011 NOSIG
Conditions at: UGSB (BATUMI , GE) observed 1330 UTC 18 August 2019
Temperature: 23.0°C (73°F)
Dewpoint: 21.0°C (70°F) [RH = 89%]
Pressure (altimeter): 29.85 inches Hg (1011.0 mb)
Winds: from the SW (220 degrees) at 9 MPH (8 knots; 4.1 m/s)
Visibility: 6 or more miles (10+ km)
Ceiling: 4000 feet AGL
Clouds: few clouds at 2000 feet AGL
broken clouds at 4000 feet AGL
Weather: no significant weather observed at this time

METAR text: UGSB 181300Z 23012KT 9999 FEW015 BKN040 24/21 Q1011 NOSIG
Conditions at: UGSB (BATUMI , GE) observed 1300 UTC 18 August 2019
Temperature: 24.0°C (75°F)
Dewpoint: 21.0°C (70°F) [RH = 83%]
Pressure (altimeter): 29.85 inches Hg (1011.0 mb)
Winds: from the SW (230 degrees) at 14 MPH (12 knots; 6.2 m/s)
Visibility: 6 or more miles (10+ km)
Ceiling: 4000 feet AGL
Clouds: few clouds at 1500 feet AGL
broken clouds at 4000 feet AGL
Weather: no significant weather observed at this time

METAR text: UGSB 181230Z 24011KT 9999 FEW018 SCT045 25/21 Q1010 NOSIG
Conditions at: UGSB (BATUMI , GE) observed 1230 UTC 18 August 2019
Temperature: 25.0°C (77°F)
Dewpoint: 21.0°C (70°F) [RH = 79%]
Pressure (altimeter): 29.82 inches Hg (1010.0 mb)
Winds: from the WSW (240 degrees) at 13 MPH (11 knots; 5.7 m/s)
Visibility: 6 or more miles (10+ km)
Ceiling: at least 12,000 feet AGL
Clouds: few clouds at 1800 feet AGL
scattered clouds at 4500 feet AGL
Weather: no significant weather observed at this time

METAR text: UGSB 181200Z 24009KT 9999 FEW020 BKN064 25/22 Q1010 NOSIG
Conditions at: UGSB (BATUMI , GE) observed 1200 UTC 18 August 2019
Temperature: 25.0°C (77°F)
Dewpoint: 22.0°C (72°F) [RH = 83%]
Pressure (altimeter): 29.82 inches Hg (1010.0 mb)
Winds: from the WSW (240 degrees) at 10 MPH (9 knots; 4.6 m/s)
Visibility: 6 or more miles (10+ km)
Ceiling: 6400 feet AGL
Clouds: few clouds at 2000 feet AGL
broken clouds at 6400 feet AGL
Weather: no significant weather observed at this time

METAR text: UGSB 181130Z 24009KT 9999 FEW020 BKN055 25/22 Q1010 NOSIG
Conditions at: UGSB (BATUMI , GE) observed 1130 UTC 18 August 2019
Temperature: 25.0°C (77°F)
Dewpoint: 22.0°C (72°F) [RH = 83%]
Pressure (altimeter): 29.82 inches Hg (1010.0 mb)
Winds: from the WSW (240 degrees) at 10 MPH (9 knots; 4.6 m/s)
Visibility: 6 or more miles (10+ km)
Ceiling: 5500 feet AGL
Clouds: few clouds at 2000 feet AGL
broken clouds at 5500 feet AGL
Weather: no significant weather observed at this time

METAR text: UGSB 181100Z 22006KT 9999 FEW020 BKN060 25/22 Q1009 R13/////// NOSIG
Conditions at: UGSB (BATUMI , GE) observed 1100 UTC 18 August 2019
Temperature: 25.0°C (77°F)
Dewpoint: 22.0°C (72°F) [RH = 83%]
Pressure (altimeter): 29.79 inches Hg (1009.0 mb)
Winds: from the SW (220 degrees) at 7 MPH (6 knots; 3.1 m/s)
Visibility: 6 or more miles (10+ km)
Ceiling: 6000 feet AGL
Clouds: few clouds at 2000 feet AGL
broken clouds at 6000 feet AGL
Weather: no significant weather observed at this time

METAR text: UGSB 181030Z 20007KT 9999 SCT016 BKN030 25/22 Q1009 R13/////// NOSIG
Conditions at: UGSB (BATUMI , GE) observed 1030 UTC 18 August 2019
Temperature: 25.0°C (77°F)
Dewpoint: 22.0°C (72°F) [RH = 83%]
Pressure (altimeter): 29.79 inches Hg (1009.0 mb)
Winds: from the SSW (200 degrees) at 8 MPH (7 knots; 3.6 m/s)
Visibility: 6 or more miles (10+ km)
Ceiling: 3000 feet AGL
Clouds: scattered clouds at 1600 feet AGL
broken clouds at 3000 feet AGL
Weather: no significant weather observed at this time

METAR text: UGSB 181000Z 21008KT 180V240 9999 SCT013 BKN022 24/22 Q1009 R13/19//60 NOSIG
Conditions at: UGSB (BATUMI , GE) observed 1000 UTC 18 August 2019
Temperature: 24.0°C (75°F)
Dewpoint: 22.0°C (72°F) [RH = 89%]
Pressure (altimeter): 29.79 inches Hg (1009.0 mb)
Winds: from the SSW (210 degrees) at 9 MPH (8 knots; 4.1 m/s)
Visibility: 6 or more miles (10+ km)
Ceiling: 2200 feet AGL
Clouds: scattered clouds at 1300 feet AGL
broken clouds at 2200 feet AGL
Weather: no significant weather observed at this time

METAR text: UGSB 180930Z 21008KT 9999 -RA FEW013 SCT025 24/22 Q1008 NOSIG
Conditions at: UGSB (BATUMI , GE) observed 0930 UTC 18 August 2019
Temperature: 24.0°C (75°F)
Dewpoint: 22.0°C (72°F) [RH = 89%]
Pressure (altimeter): 29.76 inches Hg (1008.0 mb)
Winds: from the SSW (210 degrees) at 9 MPH (8 knots; 4.1 m/s)
Visibility: 6 or more miles (10+ km)
Ceiling: at least 12,000 feet AGL
Clouds: few clouds at 1300 feet AGL
scattered clouds at 2500 feet AGL
Weather: -RA  (light rain)

METAR text: UGSB 180900Z 24008KT 9999 FEW014 SCT024 25/22 Q1008 NOSIG
Conditions at: UGSB (BATUMI , GE) observed 0900 UTC 18 August 2019
Temperature: 25.0°C (77°F)
Dewpoint: 22.0°C (72°F) [RH = 83%]
Pressure (altimeter): 29.76 inches Hg (1008.0 mb)
Winds: from the WSW (240 degrees) at 9 MPH (8 knots; 4.1 m/s)
Visibility: 6 or more miles (10+ km)
Ceiling: at least 12,000 feet AGL
Clouds: few clouds at 1400 feet AGL
scattered clouds at 2400 feet AGL
Weather: no significant weather observed at this time

METAR text: UGSB 180830Z 24008KT 9999 FEW014 SCT030 25/22 Q1008 NOSIG
Conditions at: UGSB (BATUMI , GE) observed 0830 UTC 18 August 2019
Temperature: 25.0°C (77°F)
Dewpoint: 22.0°C (72°F) [RH = 83%]
Pressure (altimeter): 29.76 inches Hg (1008.0 mb)
Winds: from the WSW (240 degrees) at 9 MPH (8 knots; 4.1 m/s)
Visibility: 6 or more miles (10+ km)
Ceiling: at least 12,000 feet AGL
Clouds: few clouds at 1400 feet AGL
scattered clouds at 3000 feet AGL
Weather: no significant weather observed at this time

METAR text: UGSB 180800Z 24007KT 9999 FEW016 SCT029 25/22 Q1008 NOSIG
Conditions at: UGSB (BATUMI , GE) observed 0800 UTC 18 August 2019
Temperature: 25.0°C (77°F)
Dewpoint: 22.0°C (72°F) [RH = 83%]
Pressure (altimeter): 29.76 inches Hg (1008.0 mb)
Winds: from the WSW (240 degrees) at 8 MPH (7 knots; 3.6 m/s)
Visibility: 6 or more miles (10+ km)
Ceiling: at least 12,000 feet AGL
Clouds: few clouds at 1600 feet AGL
scattered clouds at 2900 feet AGL
Weather: no significant weather observed at this time

METAR text: UGSB 180730Z 24007KT 9999 FEW016 SCT028 25/22 Q1008 NOSIG
Conditions at: UGSB (BATUMI , GE) observed 0730 UTC 18 August 2019
Temperature: 25.0°C (77°F)
Dewpoint: 22.0°C (72°F) [RH = 83%]
Pressure (altimeter): 29.76 inches Hg (1008.0 mb)
Winds: from the WSW (240 degrees) at 8 MPH (7 knots; 3.6 m/s)
Visibility: 6 or more miles (10+ km)
Ceiling: at least 12,000 feet AGL
Clouds: few clouds at 1600 feet AGL
scattered clouds at 2800 feet AGL
Weather: no significant weather observed at this time

METAR text: UGSB 180700Z 24006KT 9999 FEW026 BKN065 25/22 Q1008 NOSIG
Conditions at: UGSB (BATUMI , GE) observed 0700 UTC 18 August 2019
Temperature: 25.0°C (77°F)
Dewpoint: 22.0°C (72°F) [RH = 83%]
Pressure (altimeter): 29.76 inches Hg (1008.0 mb)
Winds: from the WSW (240 degrees) at 7 MPH (6 knots; 3.1 m/s)
Visibility: 6 or more miles (10+ km)
Ceiling: 6500 feet AGL
Clouds: few clouds at 2600 feet AGL
broken clouds at 6500 feet AGL
Weather: no significant weather observed at this time

METAR text: UGSB 180630Z 25005KT 9999 FEW026 BKN060 24/22 Q1007 NOSIG
Conditions at: UGSB (BATUMI , GE) observed 0630 UTC 18 August 2019
Temperature: 24.0°C (75°F)
Dewpoint: 22.0°C (72°F) [RH = 89%]
Pressure (altimeter): 29.73 inches Hg (1007.0 mb)
Winds: from the WSW (250 degrees) at 6 MPH (5 knots; 2.6 m/s)
Visibility: 6 or more miles (10+ km)
Ceiling: 6000 feet AGL
Clouds: few clouds at 2600 feet AGL
broken clouds at 6000 feet AGL
Weather: no significant weather observed at this time

METAR text: UGSB 180600Z 25005KT 9999 FEW024 BKN060 25/22 Q1007 R13/19//60 NOSIG
Conditions at: UGSB (BATUMI , GE) observed 0600 UTC 18 August 2019
Temperature: 25.0°C (77°F)
Dewpoint: 22.0°C (72°F) [RH = 83%]
Pressure (altimeter): 29.73 inches Hg (1007.0 mb)
Winds: from the WSW (250 degrees) at 6 MPH (5 knots; 2.6 m/s)
Visibility: 6 or more miles (10+ km)
Ceiling: 6000 feet AGL
Clouds: few clouds at 2400 feet AGL
broken clouds at 6000 feet AGL
Weather: no significant weather observed at this time

METAR text: UGSB 180530Z 24003KT 200V280 9999 FEW016 BKN058 24/22 Q1007 R13/19//60 NOSIG
Conditions at: UGSB (BATUMI , GE) observed 0530 UTC 18 August 2019
Temperature: 24.0°C (75°F)
Dewpoint: 22.0°C (72°F) [RH = 89%]
Pressure (altimeter): 29.73 inches Hg (1007.0 mb)
Winds: from the WSW (240 degrees) at 3 MPH (3 knots; 1.5 m/s)
Visibility: 6 or more miles (10+ km)
Ceiling: 5800 feet AGL
Clouds: few clouds at 1600 feet AGL
broken clouds at 5800 feet AGL
Weather: no significant weather observed at this time

METAR text: UGSB 180500Z 22003KT 140V260 9999 FEW011 BKN058 24/22 Q1007 R13/29//55 NOSIG
Conditions at: UGSB (BATUMI , GE) observed 0500 UTC 18 August 2019
Temperature: 24.0°C (75°F)
Dewpoint: 22.0°C (72°F) [RH = 89%]
Pressure (altimeter): 29.73 inches Hg (1007.0 mb)
Winds: from the SW (220 degrees) at 3 MPH (3 knots; 1.5 m/s)
Visibility: 6 or more miles (10+ km)
Ceiling: 5800 feet AGL
Clouds: few clouds at 1100 feet AGL
broken clouds at 5800 feet AGL
Weather: no significant weather observed at this time

METAR text: UGSB 180430Z 15003KT 120V270 9999 FEW010 BKN058 23/22 Q1008 R13/29//55 NOSIG
Conditions at: UGSB (BATUMI , GE) observed 0430 UTC 18 August 2019
Temperature: 23.0°C (73°F)
Dewpoint: 22.0°C (72°F) [RH = 94%]
Pressure (altimeter): 29.76 inches Hg (1008.0 mb)
Winds: from the SSE (150 degrees) at 3 MPH (3 knots; 1.5 m/s)
Visibility: 6 or more miles (10+ km)
Ceiling: 5800 feet AGL
Clouds: few clouds at 1000 feet AGL
broken clouds at 5800 feet AGL
Weather: no significant weather observed at this time

METAR text: UGSB 180400Z 12003KT 9000 FEW009 BKN060 23/22 Q1008 R13/29//55 NOSIG
Conditions at: UGSB (BATUMI , GE) observed 0400 UTC 18 August 2019
Temperature: 23.0°C (73°F)
Dewpoint: 22.0°C (72°F) [RH = 94%]
Pressure (altimeter): 29.76 inches Hg (1008.0 mb)
Winds: from the ESE (120 degrees) at 3 MPH (3 knots; 1.5 m/s)
Visibility: 6 miles ( 9 km)
Ceiling: 6000 feet AGL
Clouds: few clouds at 900 feet AGL
broken clouds at 6000 feet AGL
Weather: no significant weather observed at this time

METAR text: UGSB 180330Z 12004KT 8000 -RA FEW006 BKN026 22/21 Q1008 R13/29//55 NOSIG
Conditions at: UGSB (BATUMI , GE) observed 0330 UTC 18 August 2019
Temperature: 22.0°C (72°F)
Dewpoint: 21.0°C (70°F) [RH = 94%]
Pressure (altimeter): 29.76 inches Hg (1008.0 mb)
Winds: from the ESE (120 degrees) at 5 MPH (4 knots; 2.1 m/s)
Visibility: 5 miles ( 8 km)
Ceiling: 2600 feet AGL
Clouds: few clouds at 600 feet AGL
broken clouds at 2600 feet AGL
Weather: -RA  (light rain)

METAR text: UGSB 180300Z 17002KT 7000 -RA FEW005 BKN026 22/21 Q1008 R13/29//55 NOSIG
Conditions at: UGSB (BATUMI , GE) observed 0300 UTC 18 August 2019
Temperature: 22.0°C (72°F)
Dewpoint: 21.0°C (70°F) [RH = 94%]
Pressure (altimeter): 29.76 inches Hg (1008.0 mb)
Winds: from the S (170 degrees) at 2 MPH (2 knots; 1.0 m/s)
Visibility: 4 miles ( 7 km)
Ceiling: 2600 feet AGL
Clouds: few clouds at 500 feet AGL
broken clouds at 2600 feet AGL
Weather: -RA  (light rain)

METAR text: UGSB 180230Z 13004KT 5000 -RA SCT005 BKN017 21/21 Q1008 R13/19//60 NOSIG
Conditions at: UGSB (BATUMI , GE) observed 0230 UTC 18 August 2019
Temperature: 21.0°C (70°F)
Dewpoint: 21.0°C (70°F) [RH = 100%]
Pressure (altimeter): 29.76 inches Hg (1008.0 mb)
Winds: from the SE (130 degrees) at 5 MPH (4 knots; 2.1 m/s)
Visibility: 3 miles ( 5 km)
Ceiling: 1700 feet AGL
Clouds: scattered clouds at 500 feet AGL
broken clouds at 1700 feet AGL
Weather: -RA  (light rain)

METAR text: UGSB 180200Z AUTO 13004KT 6000 -SHRA FEW008 OVC028 22/21 Q1008 R13/19//60 NOSIG
Conditions at: UGSB (BATUMI , GE) observed 0200 UTC 18 August 2019
Temperature: 22.0°C (72°F)
Dewpoint: 21.0°C (70°F) [RH = 94%]
Pressure (altimeter): 29.76 inches Hg (1008.0 mb)
Winds: from the SE (130 degrees) at 5 MPH (4 knots; 2.1 m/s)
Visibility: 4 miles ( 6 km)
Ceiling: 2800 feet AGL
Clouds: few clouds at 800 feet AGL
overcast cloud deck at 2800 feet AGL
Weather: -SHRA  (light rain showers)

METAR text: UGSB 180130Z AUTO 13004KT 9999 FEW008 OVC026 22/21 Q1008 R13/19//60 NOSIG
Conditions at: UGSB (BATUMI , GE) observed 0130 UTC 18 August 2019
Temperature: 22.0°C (72°F)
Dewpoint: 21.0°C (70°F) [RH = 94%]
Pressure (altimeter): 29.76 inches Hg (1008.0 mb)
Winds: from the SE (130 degrees) at 5 MPH (4 knots; 2.1 m/s)
Visibility: 6 or more miles (10+ km)
Ceiling: 2600 feet AGL
Clouds: few clouds at 800 feet AGL
overcast cloud deck at 2600 feet AGL
Weather: no significant weather observed at this time

METAR text: UGSB 180100Z 14004KT 9999 SCT008 OVC025 22/21 Q1008 R13/19//60 NOSIG
Conditions at: UGSB (BATUMI , GE) observed 0100 UTC 18 August 2019
Temperature: 22.0°C (72°F)
Dewpoint: 21.0°C (70°F) [RH = 94%]
Pressure (altimeter): 29.76 inches Hg (1008.0 mb)
Winds: from the SE (140 degrees) at 5 MPH (4 knots; 2.1 m/s)
Visibility: 6 or more miles (10+ km)
Ceiling: 2500 feet AGL
Clouds: scattered clouds at 800 feet AGL
overcast cloud deck at 2500 feet AGL
Weather: no significant weather observed at this time

METAR text: UGSB 180030Z 13004KT 9999 FEW017 BKN025 22/21 Q1008 R13/19//60 NOSIG
Conditions at: UGSB (BATUMI , GE) observed 0030 UTC 18 August 2019
Temperature: 22.0°C (72°F)
Dewpoint: 21.0°C (70°F) [RH = 94%]
Pressure (altimeter): 29.76 inches Hg (1008.0 mb)
Winds: from the SE (130 degrees) at 5 MPH (4 knots; 2.1 m/s)
Visibility: 6 or more miles (10+ km)
Ceiling: 2500 feet AGL
Clouds: few clouds at 1700 feet AGL
broken clouds at 2500 feet AGL
Weather: no significant weather observed at this time

METAR text: UGSB 180000Z 15003KT 9999 FEW016 BKN025 22/21 Q1008 R13/19//60 NOSIG
Conditions at: UGSB (BATUMI , GE) observed 0000 UTC 18 August 2019
Temperature: 22.0°C (72°F)
Dewpoint: 21.0°C (70°F) [RH = 94%]
Pressure (altimeter): 29.76 inches Hg (1008.0 mb)
Winds: from the SSE (150 degrees) at 3 MPH (3 knots; 1.5 m/s)
Visibility: 6 or more miles (10+ km)
Ceiling: 2500 feet AGL
Clouds: few clouds at 1600 feet AGL
broken clouds at 2500 feet AGL
Weather: no significant weather observed at this time

METAR text: UGSB 172330Z 11004KT 7000 -RA FEW016 BKN028 22/21 Q1008 R13/19//60 NOSIG
Conditions at: UGSB (BATUMI , GE) observed 2330 UTC 17 August 2019
Temperature: 22.0°C (72°F)
Dewpoint: 21.0°C (70°F) [RH = 94%]
Pressure (altimeter): 29.76 inches Hg (1008.0 mb)
Winds: from the ESE (110 degrees) at 5 MPH (4 knots; 2.1 m/s)
Visibility: 4 miles ( 7 km)
Ceiling: 2800 feet AGL
Clouds: few clouds at 1600 feet AGL
broken clouds at 2800 feet AGL
Weather: -RA  (light rain)

METAR text: UGSB 172300Z 12004KT 9999 FEW015 BKN026 22/21 Q1009 R13/19//60 NOSIG
Conditions at: UGSB (BATUMI , GE) observed 2300 UTC 17 August 2019
Temperature: 22.0°C (72°F)
Dewpoint: 21.0°C (70°F) [RH = 94%]
Pressure (altimeter): 29.79 inches Hg (1009.0 mb)
Winds: from the ESE (120 degrees) at 5 MPH (4 knots; 2.1 m/s)
Visibility: 6 or more miles (10+ km)
Ceiling: 2600 feet AGL
Clouds: few clouds at 1500 feet AGL
broken clouds at 2600 feet AGL
Weather: no significant weather observed at this time

METAR text: UGSB 172230Z 13005KT 9999 FEW012 BKN032 22/21 Q1009 R13/19//60 NOSIG
Conditions at: UGSB (BATUMI , GE) observed 2230 UTC 17 August 2019
Temperature: 22.0°C (72°F)
Dewpoint: 21.0°C (70°F) [RH = 94%]
Pressure (altimeter): 29.79 inches Hg (1009.0 mb)
Winds: from the SE (130 degrees) at 6 MPH (5 knots; 2.6 m/s)
Visibility: 6 or more miles (10+ km)
Ceiling: 3200 feet AGL
Clouds: few clouds at 1200 feet AGL
broken clouds at 3200 feet AGL
Weather: no significant weather observed at this time

METAR text: UGSB 172200Z 13005KT 9999 FEW012 BKN031 22/21 Q1009 R13/19//60 NOSIG
Conditions at: UGSB (BATUMI , GE) observed 2200 UTC 17 August 2019
Temperature: 22.0°C (72°F)
Dewpoint: 21.0°C (70°F) [RH = 94%]
Pressure (altimeter): 29.79 inches Hg (1009.0 mb)
Winds: from the SE (130 degrees) at 6 MPH (5 knots; 2.6 m/s)
Visibility: 6 or more miles (10+ km)
Ceiling: 3100 feet AGL
Clouds: few clouds at 1200 feet AGL
broken clouds at 3100 feet AGL
Weather: no significant weather observed at this time

METAR text: UGSB 172130Z 13006KT 9999 BKN031 22/21 Q1009 R13/19//60 NOSIG
Conditions at: UGSB (BATUMI , GE) observed 2130 UTC 17 August 2019
Temperature: 22.0°C (72°F)
Dewpoint: 21.0°C (70°F) [RH = 94%]
Pressure (altimeter): 29.79 inches Hg (1009.0 mb)
Winds: from the SE (130 degrees) at 7 MPH (6 knots; 3.1 m/s)
Visibility: 6 or more miles (10+ km)
Ceiling: 3100 feet AGL
Clouds: broken clouds at 3100 feet AGL
Weather: no significant weather observed at this time

METAR text: UGSB 172100Z 13006KT 9999 FEW023 BKN033 22/21 Q1009 R13/19//60 NOSIG
Conditions at: UGSB (BATUMI , GE) observed 2100 UTC 17 August 2019
Temperature: 22.0°C (72°F)
Dewpoint: 21.0°C (70°F) [RH = 94%]
Pressure (altimeter): 29.79 inches Hg (1009.0 mb)
Winds: from the SE (130 degrees) at 7 MPH (6 knots; 3.1 m/s)
Visibility: 6 or more miles (10+ km)
Ceiling: 3300 feet AGL
Clouds: few clouds at 2300 feet AGL
broken clouds at 3300 feet AGL
Weather: no significant weather observed at this time

METAR text: UGSB 172030Z 12004KT 9999 BKN027 22/21 Q1009 R13/29//55 NOSIG
Conditions at: UGSB (BATUMI , GE) observed 2030 UTC 17 August 2019
Temperature: 22.0°C (72°F)
Dewpoint: 21.0°C (70°F) [RH = 94%]
Pressure (altimeter): 29.79 inches Hg (1009.0 mb)
Winds: from the ESE (120 degrees) at 5 MPH (4 knots; 2.1 m/s)
Visibility: 6 or more miles (10+ km)
Ceiling: 2700 feet AGL
Clouds: broken clouds at 2700 feet AGL
Weather: no significant weather observed at this time

METAR text: UGSB 172000Z 13004KT 9999 FEW025 BKN036 22/21 Q1009 R13/29//55 NOSIG
Conditions at: UGSB (BATUMI , GE) observed 2000 UTC 17 August 2019
Temperature: 22.0°C (72°F)
Dewpoint: 21.0°C (70°F) [RH = 94%]
Pressure (altimeter): 29.79 inches Hg (1009.0 mb)
Winds: from the SE (130 degrees) at 5 MPH (4 knots; 2.1 m/s)
Visibility: 6 or more miles (10+ km)
Ceiling: 3600 feet AGL
Clouds: few clouds at 2500 feet AGL
broken clouds at 3600 feet AGL
Weather: no significant weather observed at this time

METAR text: UGSB 171930Z 13006KT 9999 FEW023 BKN036 22/21 Q1010 R13/29//55 NOSIG
Conditions at: UGSB (BATUMI , GE) observed 1930 UTC 17 August 2019
Temperature: 22.0°C (72°F)
Dewpoint: 21.0°C (70°F) [RH = 94%]
Pressure (altimeter): 29.82 inches Hg (1010.0 mb)
Winds: from the SE (130 degrees) at 7 MPH (6 knots; 3.1 m/s)
Visibility: 6 or more miles (10+ km)
Ceiling: 3600 feet AGL
Clouds: few clouds at 2300 feet AGL
broken clouds at 3600 feet AGL
Weather: no significant weather observed at this time

METAR text: UGSB 171900Z 13007KT 9999 FEW023 BKN033 22/21 Q1010 R13/29//55 NOSIG
Conditions at: UGSB (BATUMI , GE) observed 1900 UTC 17 August 2019
Temperature: 22.0°C (72°F)
Dewpoint: 21.0°C (70°F) [RH = 94%]
Pressure (altimeter): 29.82 inches Hg (1010.0 mb)
Winds: from the SE (130 degrees) at 8 MPH (7 knots; 3.6 m/s)
Visibility: 6 or more miles (10+ km)
Ceiling: 3300 feet AGL
Clouds: few clouds at 2300 feet AGL
broken clouds at 3300 feet AGL
Weather: no significant weather observed at this time

METAR text: UGSB 171830Z 12006KT 8000 -RA FEW023 BKN036 22/21 Q1010 R13/29//55 NOSIG
Conditions at: UGSB (BATUMI , GE) observed 1830 UTC 17 August 2019
Temperature: 22.0°C (72°F)
Dewpoint: 21.0°C (70°F) [RH = 94%]
Pressure (altimeter): 29.82 inches Hg (1010.0 mb)
Winds: from the ESE (120 degrees) at 7 MPH (6 knots; 3.1 m/s)
Visibility: 5 miles ( 8 km)
Ceiling: 3600 feet AGL
Clouds: few clouds at 2300 feet AGL
broken clouds at 3600 feet AGL
Weather: -RA  (light rain)

METAR text: UGSB 171800Z 13005KT 7000 -RA FEW016 OVC025 22/21 Q1010 R13/29//55 NOSIG
Conditions at: UGSB (BATUMI , GE) observed 1800 UTC 17 August 2019
Temperature: 22.0°C (72°F)
Dewpoint: 21.0°C (70°F) [RH = 94%]
Pressure (altimeter): 29.82 inches Hg (1010.0 mb)
Winds: from the SE (130 degrees) at 6 MPH (5 knots; 2.6 m/s)
Visibility: 4 miles ( 7 km)
Ceiling: 2500 feet AGL
Clouds: few clouds at 1600 feet AGL
overcast cloud deck at 2500 feet AGL
Weather: -RA  (light rain)

METAR text: UGSB 171730Z 18004KT 9999 FEW019 BKN030 22/21 Q1010 R13/29//55 NOSIG
Conditions at: UGSB (BATUMI , GE) observed 1730 UTC 17 August 2019
Temperature: 22.0°C (72°F)
Dewpoint: 21.0°C (70°F) [RH = 94%]
Pressure (altimeter): 29.82 inches Hg (1010.0 mb)
Winds: from the S (180 degrees) at 5 MPH (4 knots; 2.1 m/s)
Visibility: 6 or more miles (10+ km)
Ceiling: 3000 feet AGL
Clouds: few clouds at 1900 feet AGL
broken clouds at 3000 feet AGL
Weather: no significant weather observed at this time

METAR text: UGSB 171700Z 17003KT 9999 FEW011 BKN027 22/21 Q1010 R13/29//55 NOSIG
Conditions at: UGSB (BATUMI , GE) observed 1700 UTC 17 August 2019
Temperature: 22.0°C (72°F)
Dewpoint: 21.0°C (70°F) [RH = 94%]
Pressure (altimeter): 29.82 inches Hg (1010.0 mb)
Winds: from the S (170 degrees) at 3 MPH (3 knots; 1.5 m/s)
Visibility: 6 or more miles (10+ km)
Ceiling: 2700 feet AGL
Clouds: few clouds at 1100 feet AGL
broken clouds at 2700 feet AGL
Weather: no significant weather observed at this time

METAR text: UGSB 171630Z 22003KT 4100 RA SCT020 BKN029 21/21 Q1010 R13/29//55 NOSIG
Conditions at: UGSB (BATUMI , GE) observed 1630 UTC 17 August 2019
Temperature: 21.0°C (70°F)
Dewpoint: 21.0°C (70°F) [RH = 100%]
Pressure (altimeter): 29.82 inches Hg (1010.0 mb)
Winds: from the SW (220 degrees) at 3 MPH (3 knots; 1.5 m/s)
Visibility: 2.55 miles (4.10 km)
Ceiling: 2900 feet AGL
Clouds: scattered clouds at 2000 feet AGL
broken clouds at 2900 feet AGL
Weather: RA  (moderate rain)

Forecast for: UGSB (BATUMI , GE)
Text: TAF UGSB 182300Z 1900/1924 21010KT 7000 -DZ FEW010 BKN020 TX25/1911Z TN21/1900Z
Forecast period: 0000 to 0600 UTC 19 August 2019
Forecast type: FROM: standard forecast or significant change
Winds: from the SSW (210 degrees) at 12 MPH (10 knots; 5.1 m/s)
Visibility: 4 miles (7 km)
Ceiling: 2000 feet AGL
Clouds: few clouds at 1000 feet AGL
broken clouds at 2000 feet AGL
Weather: -DZ  (light drizzle)
Text: TEMPO 1900/1908 3500 RA BR SCT005 BKN017
Forecast period: 0000 to 0800 UTC 19 August 2019
Forecast type: TEMPORARY: The following changes expected for less than half the time period
Visibility: 2.17 miles (3.49 km)
Ceiling: 1700 feet AGL
Clouds: scattered clouds at 500 feet AGL
broken clouds at 1700 feet AGL
Weather: RA BR  (moderate rain, mist)
Text: BECMG 1906/1909 FEW020 SCT040 1914/1924 4000 RA BR SCT007 BKN020
Forecast period: 0600 UTC 19 August 2019 to 0000 UTC 20 August 2019
Forecast type: BECOMING: Conditions expected to become as follows by 0900 UTC 19 August 2019
Winds: from the SSW (210 degrees) at 12 MPH (10 knots; 5.1 m/s)
Visibility: 1.20 miles (1.93 km)
Ceiling: at least 12,000 feet AGL
Clouds: scattered clouds at 700 feet AGL
few clouds at 2000 feet AGL
scattered clouds at 4000 feet AGL
Weather: RA BR  (moderate rain, mist)